createdAt,value
2022-10-06T07:01:59.704Z,18
2022-10-06T07:07:06.002Z,22
2022-10-06T07:12:13.013Z,19
2022-10-06T07:17:20.188Z,20
2022-10-06T07:22:27.028Z,60
2022-10-06T07:27:33.985Z,56
2022-10-06T07:32:40.991Z,54
2022-10-06T07:37:48.004Z,55
2022-10-06T07:42:55.024Z,57
2022-10-06T07:48:02.024Z,53
2022-10-06T07:53:09.154Z,16
2022-10-06T07:58:16.264Z,24
2022-10-06T08:03:23.233Z,94
2022-10-06T08:08:30.169Z,140
2022-10-06T08:13:37.008Z,231
2022-10-06T08:18:43.996Z,175
2022-10-06T08:23:51.026Z,45
2022-10-06T08:28:58.074Z,100
2022-10-06T08:34:05.002Z,146
2022-10-06T08:39:12.021Z,94
2022-10-06T08:44:18.033Z,83
2022-10-06T08:49:24.017Z,99
2022-10-06T08:54:31.043Z,92
2022-10-06T08:59:38.008Z,76
2022-10-06T09:04:45.001Z,89
2022-10-06T09:09:52.023Z,93
2022-10-06T09:14:59.002Z,125
2022-10-06T09:20:05.989Z,137
2022-10-06T09:25:13.065Z,102
2022-10-06T09:35:27.009Z,37
2022-10-06T09:40:34.031Z,91
2022-10-06T09:45:40.999Z,120
2022-10-06T09:50:48.006Z,107
2022-10-06T09:55:54.018Z,55
2022-10-06T10:01:01.024Z,91
2022-10-06T10:06:08.051Z,48
2022-10-06T10:11:15.001Z,110
2022-10-06T10:16:22.012Z,87
2022-10-06T10:21:29.044Z,72
2022-10-06T10:26:36.109Z,81
2022-10-06T10:31:42.055Z,91
2022-10-06T10:36:48.018Z,69
2022-10-06T10:41:53.996Z,77
2022-10-06T10:47:00.008Z,63
2022-10-06T10:52:07.012Z,47
2022-10-06T10:57:13.000Z,57
2022-10-06T11:02:18.979Z,57
2022-10-06T11:07:26.025Z,67
2022-10-06T11:12:32.039Z,63
2022-10-06T11:17:38.984Z,66
2022-10-06T11:22:45.991Z,81
2022-10-06T11:27:53.003Z,65
2022-10-06T11:33:00.004Z,57
2022-10-06T11:38:07.064Z,44
2022-10-06T11:43:14.013Z,46
2022-10-06T11:48:20.990Z,40
2022-10-06T11:53:28.010Z,35
2022-10-06T11:58:34.989Z,39
2022-10-06T12:03:41.991Z,40
2022-10-06T12:08:49.034Z,44
2022-10-06T12:13:55.989Z,45
2022-10-06T12:19:02.039Z,43
2022-10-06T12:24:08.996Z,43
2022-10-06T12:29:15.973Z,43
2022-10-06T12:34:22.972Z,36
2022-10-06T12:39:29.984Z,40
2022-10-06T12:44:36.987Z,36
2022-10-06T12:49:43.990Z,33
2022-10-06T12:54:50.053Z,33
2022-10-06T12:59:56.022Z,27
2022-10-06T13:05:03.126Z,29
2022-10-06T13:10:10.190Z,30
2022-10-06T13:15:17.213Z,30
2022-10-06T13:20:24.119Z,30
2022-10-06T13:25:30.989Z,26
2022-10-06T13:30:37.992Z,32
2022-10-06T13:35:44.989Z,34
2022-10-06T13:40:51.990Z,31
2022-10-06T13:45:59.007Z,31
2022-10-06T13:51:06.000Z,32
2022-10-06T13:56:13.011Z,29
2022-10-06T14:01:20.121Z,26
2022-10-06T14:06:26.229Z,24
2022-10-06T14:11:33.271Z,26
2022-10-06T14:16:40.125Z,21
2022-10-06T14:21:46.993Z,18
2022-10-06T14:26:54.013Z,23
2022-10-06T14:32:00.980Z,21
2022-10-06T14:37:07.964Z,20
2022-10-06T14:42:13.992Z,20
2022-10-06T14:47:19.987Z,17
2022-10-06T14:52:27.020Z,16
2022-10-06T14:57:33.980Z,17
2022-10-06T15:02:40.988Z,16
2022-10-06T15:07:48.099Z,16
2022-10-06T15:12:55.186Z,15
2022-10-06T15:18:02.239Z,15
2022-10-06T15:23:09.101Z,12
2022-10-06T15:28:16.002Z,9
2022-10-06T15:33:22.995Z,11
2022-10-06T15:38:29.971Z,11
2022-10-06T15:43:36.987Z,10
2022-10-06T15:48:43.983Z,10
2022-10-06T15:53:49.995Z,10
2022-10-06T15:58:56.998Z,7
2022-10-06T16:04:03.974Z,8
2022-10-06T16:09:10.984Z,7
2022-10-06T16:14:17.992Z,49
2022-10-06T16:19:25.007Z,46
2022-10-06T16:24:31.975Z,45
2022-10-06T16:29:38.989Z,43
2022-10-06T16:34:45.993Z,42
2022-10-06T16:39:52.991Z,38
2022-10-06T16:45:00.094Z,40
2022-10-06T16:50:07.195Z,40
2022-10-06T16:55:14.217Z,37
